createdAt,value
2017-08-18T00:00:21.360Z,18.20
2017-08-18T00:02:49.800Z,18.30
2017-08-18T00:05:18.213Z,18.20
2017-08-18T00:07:46.635Z,18.20
2017-08-18T00:10:15.033Z,18.30
2017-08-18T00:12:43.444Z,18.30
2017-08-18T00:15:11.873Z,18.40
2017-08-18T00:17:40.279Z,18.60
2017-08-18T00:20:08.693Z,18.60
2017-08-18T00:22:37.110Z,18.60
2017-08-18T00:25:05.510Z,18.50
2017-08-18T00:27:33.914Z,18.50
2017-08-18T00:30:02.337Z,18.60
2017-08-18T00:32:31.516Z,18.50
2017-08-18T00:34:59.915Z,18.50
2017-08-18T00:37:28.327Z,18.40
2017-08-18T00:39:56.745Z,18.40
2017-08-18T00:42:25.158Z,18.30
2017-08-18T00:44:54.329Z,18.20
2017-08-18T00:47:22.733Z,18.20
2017-08-18T00:49:51.142Z,18.10
2017-08-18T00:52:19.546Z,17.90
2017-08-18T00:54:47.974Z,17.90
2017-08-18T00:57:17.233Z,17.60
2017-08-18T00:59:45.638Z,17.60
2017-08-18T01:02:14.057Z,17.60
2017-08-18T01:04:42.458Z,17.60
2017-08-18T01:07:10.877Z,17.70
2017-08-18T01:09:39.338Z,17.80
2017-08-18T01:12:07.776Z,17.70
2017-08-18T01:14:36.194Z,17.80
2017-08-18T01:17:04.622Z,17.70
2017-08-18T01:19:33.025Z,17.70
2017-08-18T01:22:01.427Z,17.60
2017-08-18T01:24:29.869Z,17.80
2017-08-18T01:26:58.283Z,18.00
2017-08-18T01:29:26.684Z,18.20
2017-08-18T01:31:55.143Z,18.40
2017-08-18T01:34:23.553Z,18.40
2017-08-18T01:36:51.959Z,18.50
2017-08-18T01:39:20.394Z,18.50
2017-08-18T01:41:48.814Z,18.30
2017-08-18T01:44:17.227Z,18.20
2017-08-18T01:46:45.647Z,18.10
2017-08-18T01:49:14.067Z,18.10
2017-08-18T01:51:42.515Z,18.00
2017-08-18T01:54:10.929Z,18.10
2017-08-18T01:56:39.333Z,18.00
2017-08-18T01:59:07.806Z,18.00
2017-08-18T02:01:36.210Z,17.90
2017-08-18T02:04:04.609Z,17.90
2017-08-18T02:06:33.024Z,18.00
2017-08-18T02:09:01.426Z,17.90
2017-08-18T02:11:29.831Z,17.80
2017-08-18T02:13:57.902Z,18.00
2017-08-18T02:16:26.306Z,18.10
2017-08-18T02:18:54.709Z,18.10
2017-08-18T02:21:23.136Z,18.10
2017-08-18T02:23:51.540Z,18.00
2017-08-18T02:26:19.937Z,18.00
2017-08-18T02:28:48.468Z,17.90
2017-08-18T02:31:16.867Z,17.80
2017-08-18T02:33:45.265Z,17.70
2017-08-18T02:36:13.689Z,17.80
2017-08-18T02:38:42.093Z,17.70
2017-08-18T02:41:10.569Z,17.60
2017-08-18T02:43:38.999Z,17.80
2017-08-18T02:46:07.411Z,17.80
2017-08-18T02:48:35.813Z,17.90
2017-08-18T02:51:04.234Z,17.80
2017-08-18T02:53:32.658Z,17.80
2017-08-18T02:56:01.064Z,17.80
2017-08-18T02:58:29.486Z,17.90
2017-08-18T03:00:57.886Z,17.90
2017-08-18T03:03:26.297Z,17.90
2017-08-18T03:05:54.423Z,17.80
2017-08-18T03:08:22.830Z,17.80
2017-08-18T03:10:51.233Z,17.70
2017-08-18T03:13:19.661Z,17.70
2017-08-18T03:15:48.092Z,17.70
2017-08-18T03:18:17.269Z,17.70
2017-08-18T03:20:45.685Z,17.60
2017-08-18T03:23:14.092Z,17.80
2017-08-18T03:25:42.506Z,17.70
2017-08-18T03:28:10.918Z,17.70
2017-08-18T03:30:39.336Z,17.70
2017-08-18T03:33:07.757Z,17.60
2017-08-18T03:35:36.156Z,17.50
2017-08-18T03:38:04.572Z,17.50
2017-08-18T03:40:33.005Z,17.60
2017-08-18T03:43:01.425Z,17.60
2017-08-18T03:45:29.821Z,17.50
2017-08-18T03:47:58.229Z,17.40
2017-08-18T03:50:26.657Z,17.50
2017-08-18T03:52:55.127Z,17.60
2017-08-18T03:55:23.593Z,17.70
2017-08-18T03:57:52.033Z,17.70
2017-08-18T04:00:20.438Z,17.70
2017-08-18T04:02:48.909Z,17.70
2017-08-18T04:05:17.354Z,17.70
2017-08-18T04:07:45.806Z,17.70
2017-08-18T04:10:14.256Z,17.90
2017-08-18T04:12:42.661Z,18.00
2017-08-18T04:15:11.107Z,18.00
2017-08-18T04:17:39.519Z,17.90
2017-08-18T04:20:07.926Z,17.90
2017-08-18T04:22:36.817Z,17.80
2017-08-18T04:25:06.001Z,18.00
2017-08-18T04:27:34.413Z,18.00
2017-08-18T04:30:02.846Z,18.00
2017-08-18T04:32:31.262Z,18.00
2017-08-18T04:34:59.693Z,18.00
2017-08-18T04:37:28.120Z,18.00
2017-08-18T04:39:56.521Z,18.00
2017-08-18T04:42:24.928Z,18.00
2017-08-18T04:44:53.356Z,18.20
2017-08-18T04:47:21.817Z,18.30
2017-08-18T04:49:50.218Z,18.30
2017-08-18T04:52:18.623Z,18.40
2017-08-18T04:54:47.049Z,18.60
2017-08-18T04:57:15.445Z,18.60
2017-08-18T04:59:43.845Z,18.70
2017-08-18T05:02:12.311Z,18.70
2017-08-18T05:04:40.744Z,18.80
2017-08-18T05:07:09.165Z,18.90
2017-08-18T05:09:37.581Z,18.90
2017-08-18T05:12:05.988Z,18.90
2017-08-18T05:14:34.405Z,18.90
2017-08-18T05:17:02.829Z,19.00
2017-08-18T05:19:32.639Z,19.10
2017-08-18T05:22:01.110Z,19.10
2017-08-18T05:24:29.541Z,19.10
2017-08-18T05:26:57.949Z,19.20
2017-08-18T05:29:26.365Z,19.30
2017-08-18T05:31:54.766Z,19.40
2017-08-18T05:34:23.289Z,19.60
2017-08-18T05:36:51.717Z,19.60
2017-08-18T05:39:20.123Z,19.80
2017-08-18T05:41:48.538Z,19.90
2017-08-18T05:44:17.474Z,20.00
2017-08-18T05:46:45.919Z,20.10
2017-08-18T05:49:14.333Z,20.30
2017-08-18T05:51:42.786Z,20.40
2017-08-18T05:54:12.010Z,21.00
2017-08-18T05:56:40.466Z,21.00
2017-08-18T05:59:09.696Z,21.40
2017-08-18T06:01:38.165Z,21.40
2017-08-18T06:04:06.574Z,21.80
2017-08-18T06:06:35.038Z,22.20
2017-08-18T06:09:03.099Z,22.30
2017-08-18T06:11:31.523Z,22.50
2017-08-18T06:13:59.969Z,22.40
2017-08-18T06:16:28.390Z,22.70
2017-08-18T06:18:56.819Z,22.50
2017-08-18T06:21:26.055Z,22.60
2017-08-18T06:23:54.453Z,22.70
2017-08-18T06:26:22.876Z,22.90
2017-08-18T06:28:51.970Z,23.00
2017-08-18T06:31:20.390Z,23.30
2017-08-18T06:33:48.829Z,23.30
2017-08-18T06:36:17.315Z,23.30
2017-08-18T06:38:45.817Z,23.20
2017-08-18T06:41:14.454Z,23.10
2017-08-18T06:43:45.728Z,23.20
2017-08-18T06:46:14.178Z,23.50
2017-08-18T06:48:42.677Z,23.50
2017-08-18T06:51:11.143Z,23.80
2017-08-18T06:53:39.617Z,24.20
2017-08-18T06:56:08.111Z,24.60
2017-08-18T06:58:36.458Z,25.50
2017-08-18T07:01:04.933Z,26.20
2017-08-18T07:03:33.425Z,26.60
2017-08-18T07:06:01.925Z,27.80
2017-08-18T07:08:30.409Z,27.80
2017-08-18T07:10:58.964Z,28.70
2017-08-18T07:13:27.474Z,29.40
2017-08-18T07:15:56.034Z,29.80
2017-08-18T07:18:24.540Z,30.00
2017-08-18T07:20:53.014Z,30.50
2017-08-18T07:23:21.519Z,30.10
2017-08-18T07:25:50.006Z,30.10
2017-08-18T07:28:18.492Z,29.50
2017-08-18T07:30:46.964Z,29.30
2017-08-18T07:33:15.429Z,29.60
2017-08-18T07:35:43.915Z,29.70
2017-08-18T07:38:12.477Z,29.80
2017-08-18T07:40:41.288Z,30.20
2017-08-18T07:43:09.788Z,31.10
2017-08-18T07:45:38.265Z,30.80
2017-08-18T07:48:06.781Z,31.40
2017-08-18T07:50:36.043Z,32.00
2017-08-18T07:53:04.544Z,32.00
2017-08-18T07:55:33.070Z,32.30
2017-08-18T07:58:01.772Z,32.20
2017-08-18T08:00:30.249Z,32.50
2017-08-18T08:02:58.470Z,33.60
2017-08-18T08:05:26.968Z,34.00
2017-08-18T08:07:56.196Z,35.50
2017-08-18T08:10:24.726Z,35.50
2017-08-18T08:12:53.234Z,34.80
2017-08-18T08:15:21.696Z,35.30
2017-08-18T08:17:50.190Z,35.90
2017-08-18T08:20:18.655Z,36.50
2017-08-18T08:22:47.110Z,38.10
2017-08-18T08:25:15.618Z,37.50
2017-08-18T08:27:44.105Z,36.40
2017-08-18T08:30:12.599Z,37.10
2017-08-18T08:32:41.112Z,36.90
2017-08-18T08:35:09.596Z,36.70
2017-08-18T08:37:38.096Z,37.00
2017-08-18T08:40:06.572Z,37.20
2017-08-18T08:42:35.054Z,37.50
2017-08-18T08:45:03.518Z,37.90
2017-08-18T08:48:23.092Z,35.90
2017-08-18T08:50:51.543Z,36.00
2017-08-18T08:53:20.025Z,35.90
2017-08-18T08:55:48.548Z,37.00
2017-08-18T08:58:17.017Z,36.70
2017-08-18T09:00:45.568Z,36.30
2017-08-18T09:03:14.075Z,36.10
2017-08-18T09:05:42.528Z,36.10
2017-08-18T09:08:10.994Z,36.80
2017-08-18T09:10:40.336Z,37.10
2017-08-18T09:13:08.796Z,36.80
2017-08-18T09:15:37.236Z,37.20
2017-08-18T09:18:05.707Z,38.10
2017-08-18T09:20:34.195Z,38.90
2017-08-18T09:23:02.674Z,38.40
2017-08-18T09:25:31.159Z,38.20
2017-08-18T09:28:01.723Z,38.30
2017-08-18T09:30:31.902Z,37.40
2017-08-18T09:33:00.376Z,37.60
2017-08-18T09:35:28.972Z,37.20
2017-08-18T09:37:57.504Z,37.00
2017-08-18T09:40:26.329Z,37.40
2017-08-18T09:42:55.136Z,37.50
2017-08-18T09:45:23.594Z,37.40
2017-08-18T09:48:12.191Z,36.70
2017-08-18T09:50:51.546Z,36.70
2017-08-18T09:53:30.909Z,37.20
2017-08-18T09:56:10.458Z,37.40
2017-08-18T09:58:49.888Z,37.40
2017-08-18T10:01:18.335Z,37.60
2017-08-18T10:03:46.817Z,37.70
2017-08-18T10:06:15.308Z,38.30
2017-08-18T10:08:43.760Z,38.50
2017-08-18T10:11:12.214Z,38.80
2017-08-18T10:13:40.722Z,38.10
2017-08-18T10:16:09.190Z,37.30
2017-08-18T10:18:37.680Z,37.80
2017-08-18T10:21:06.969Z,37.80
2017-08-18T10:23:35.434Z,37.80
2017-08-18T10:26:03.878Z,38.00
2017-08-18T10:28:32.366Z,38.50
2017-08-18T10:31:00.803Z,38.50
2017-08-18T10:33:29.231Z,38.10
2017-08-18T10:35:57.707Z,38.60
2017-08-18T10:38:26.127Z,39.40
2017-08-18T10:40:54.598Z,39.80
2017-08-18T10:43:23.059Z,39.10
2017-08-18T10:45:51.546Z,39.00
2017-08-18T10:48:19.958Z,38.70
2017-08-18T10:50:48.391Z,38.60
2017-08-18T10:53:16.799Z,38.90
2017-08-18T10:55:45.232Z,38.70
2017-08-18T10:58:13.741Z,38.80
2017-08-18T11:00:42.175Z,38.30
2017-08-18T11:03:10.590Z,37.80
2017-08-18T11:05:39.020Z,37.00
2017-08-18T11:08:08.354Z,37.20
2017-08-18T11:10:39.350Z,37.50
2017-08-18T11:13:07.792Z,38.10
2017-08-18T11:15:36.236Z,37.70
2017-08-18T11:18:04.660Z,38.40
2017-08-18T11:20:34.553Z,38.10
2017-08-18T11:23:02.966Z,37.80
2017-08-18T11:25:31.401Z,37.60
2017-08-18T11:27:59.834Z,38.00
2017-08-18T11:30:28.258Z,37.20
2017-08-18T11:32:56.709Z,37.30
2017-08-18T11:35:25.172Z,38.20
2017-08-18T11:37:53.610Z,38.70
2017-08-18T11:40:22.030Z,39.10
2017-08-18T11:42:50.528Z,38.90
2017-08-18T11:45:18.947Z,39.40
2017-08-18T11:47:47.374Z,39.40
2017-08-18T11:50:15.806Z,38.20
2017-08-18T11:52:44.250Z,38.40
2017-08-18T11:55:12.658Z,38.30
2017-08-18T11:57:41.077Z,38.50
2017-08-18T12:00:09.551Z,38.60
2017-08-18T12:02:37.976Z,38.30
2017-08-18T12:05:06.455Z,38.60
2017-08-18T12:07:34.946Z,38.30
2017-08-18T12:10:03.399Z,38.50
2017-08-18T12:12:31.863Z,38.10
2017-08-18T12:15:00.303Z,38.00
2017-08-18T12:17:28.729Z,38.10
2017-08-18T12:19:57.172Z,38.20
2017-08-18T12:22:25.625Z,37.70
2017-08-18T12:24:54.029Z,38.20
2017-08-18T12:27:22.441Z,37.40
2017-08-18T12:29:50.893Z,37.00
2017-08-18T12:32:19.327Z,36.30
2017-08-18T12:34:47.763Z,36.60
2017-08-18T12:37:16.961Z,36.90
2017-08-18T12:39:45.459Z,36.70
2017-08-18T12:42:13.566Z,36.90
2017-08-18T12:44:42.455Z,37.30
2017-08-18T12:47:10.551Z,37.30
2017-08-18T12:49:39.021Z,36.40
2017-08-18T12:52:07.474Z,36.20
2017-08-18T12:54:35.910Z,36.20
2017-08-18T12:57:04.390Z,35.80
2017-08-18T12:59:32.862Z,34.90
2017-08-18T13:02:01.348Z,34.60
2017-08-18T13:04:29.773Z,33.80
2017-08-18T13:06:58.268Z,34.00
2017-08-18T13:09:26.725Z,33.90
2017-08-18T13:11:55.207Z,34.10
2017-08-18T13:14:23.700Z,34.10
2017-08-18T13:16:52.177Z,34.10
2017-08-18T13:19:20.629Z,33.90
2017-08-18T13:21:49.132Z,33.70
2017-08-18T13:24:17.586Z,33.90
2017-08-18T13:26:46.032Z,34.20
2017-08-18T13:29:14.511Z,34.50
2017-08-18T13:31:42.994Z,34.10
2017-08-18T13:34:11.443Z,34.50
2017-08-18T13:36:40.883Z,34.30
2017-08-18T13:39:10.216Z,33.30
2017-08-18T13:41:38.669Z,33.30
2017-08-18T13:44:07.185Z,33.50
2017-08-18T13:46:35.714Z,33.80
2017-08-18T13:49:04.203Z,33.70
2017-08-18T13:51:32.702Z,33.40
2017-08-18T13:54:01.371Z,33.60
2017-08-18T13:56:29.813Z,33.20
2017-08-18T13:58:58.315Z,33.40
2017-08-18T14:01:26.797Z,33.20
2017-08-18T14:03:55.238Z,33.20
2017-08-18T14:06:23.707Z,33.00
2017-08-18T14:08:52.934Z,33.10
2017-08-18T14:11:21.360Z,33.00
2017-08-18T14:13:49.815Z,32.90
2017-08-18T14:16:18.225Z,32.90
2017-08-18T14:18:46.651Z,32.70
2017-08-18T14:21:15.107Z,32.60
2017-08-18T14:23:43.531Z,32.70
2017-08-18T14:26:17.455Z,32.70
2017-08-18T14:28:45.904Z,32.40
2017-08-18T14:31:14.389Z,32.30
2017-08-18T14:33:42.907Z,32.50
2017-08-18T14:36:11.346Z,32.50
2017-08-18T14:38:39.807Z,32.30
2017-08-18T14:41:08.308Z,32.30
2017-08-18T14:43:36.761Z,32.30
2017-08-18T14:46:05.219Z,32.30
2017-08-18T14:48:33.684Z,32.40
2017-08-18T14:51:02.145Z,32.30
2017-08-18T14:53:30.649Z,32.30
2017-08-18T14:55:59.868Z,32.10
2017-08-18T14:58:28.334Z,31.90
2017-08-18T15:00:56.872Z,31.90
2017-08-18T15:03:25.347Z,31.80
2017-08-18T15:05:53.795Z,31.80
2017-08-18T15:08:22.252Z,31.70
2017-08-18T15:10:50.709Z,31.50
2017-08-18T15:13:19.158Z,31.40
2017-08-18T15:15:48.298Z,31.40
2017-08-18T15:18:18.395Z,31.40
2017-08-18T15:20:46.855Z,31.30
2017-08-18T15:23:18.633Z,31.30
2017-08-18T15:25:47.100Z,31.30
2017-08-18T15:28:15.524Z,31.20
2017-08-18T15:30:43.969Z,31.20
2017-08-18T15:33:12.423Z,31.10
2017-08-18T15:35:40.871Z,30.90
2017-08-18T15:38:09.295Z,30.80
2017-08-18T15:40:37.718Z,30.50
2017-08-18T15:43:06.202Z,30.40
2017-08-18T15:45:34.733Z,30.30
2017-08-18T15:48:03.192Z,30.30
2017-08-18T15:50:38.195Z,30.30
2017-08-18T15:53:06.616Z,30.20
2017-08-18T15:55:35.064Z,30.10
2017-08-18T15:58:07.043Z,29.90
2017-08-18T16:00:35.499Z,29.70
2017-08-18T16:03:04.017Z,29.70
2017-08-18T16:05:32.593Z,29.70
2017-08-18T16:08:01.014Z,29.70
2017-08-18T16:10:29.430Z,29.60
2017-08-18T16:12:57.833Z,29.40
2017-08-18T16:15:26.275Z,29.40
2017-08-18T16:17:54.730Z,29.20
2017-08-18T16:20:23.407Z,29.20
2017-08-18T16:22:51.838Z,29.00
2017-08-18T16:27:58.318Z,28.70
2017-08-18T16:30:26.769Z,28.40
2017-08-18T16:32:55.243Z,28.30
2017-08-18T16:35:23.706Z,28.10
2017-08-18T16:37:52.150Z,27.90
2017-08-18T16:40:20.595Z,27.70
2017-08-18T16:42:49.063Z,27.50
2017-08-18T16:45:17.486Z,27.30
2017-08-18T16:47:45.983Z,27.20
2017-08-18T16:50:14.456Z,27.10
2017-08-18T16:52:42.887Z,26.90
2017-08-18T16:55:11.313Z,26.70
2017-08-18T16:57:39.844Z,26.40
2017-08-18T17:00:08.355Z,26.20
2017-08-18T17:02:36.780Z,26.00
2017-08-18T17:05:05.237Z,26.00
2017-08-18T17:07:33.657Z,25.70
2017-08-18T17:10:02.125Z,25.50
2017-08-18T17:12:30.643Z,25.60
2017-08-18T17:14:59.096Z,25.50
2017-08-18T17:17:27.561Z,25.30
2017-08-18T17:19:56.071Z,25.10
2017-08-18T17:22:24.552Z,24.90
2017-08-18T17:24:53.042Z,24.70
2017-08-18T17:27:22.221Z,24.50
2017-08-18T17:29:50.698Z,24.30
2017-08-18T17:32:19.212Z,24.40
2017-08-18T17:34:47.708Z,24.30
2017-08-18T17:37:16.220Z,24.20
2017-08-18T17:39:44.700Z,24.10
2017-08-18T17:42:13.158Z,23.80
2017-08-18T17:44:41.637Z,23.80
2017-08-18T17:47:10.183Z,23.80
2017-08-18T17:49:38.661Z,23.70
2017-08-18T17:52:07.521Z,23.50
2017-08-18T17:54:36.086Z,23.30
2017-08-18T17:57:04.565Z,23.10
2017-08-18T17:59:34.477Z,23.00
2017-08-18T18:02:02.972Z,22.80
2017-08-18T18:04:31.485Z,22.80
2017-08-18T18:07:02.570Z,22.70
2017-08-18T18:09:31.346Z,22.60
2017-08-18T18:11:59.810Z,22.40
2017-08-18T18:14:28.242Z,22.30
2017-08-18T18:16:56.657Z,22.20
2017-08-18T18:19:25.082Z,22.10
2017-08-18T18:21:53.503Z,21.90
2017-08-18T18:24:21.921Z,21.80
2017-08-18T18:26:50.353Z,21.70
2017-08-18T18:29:18.789Z,21.60
2017-08-18T18:31:47.218Z,21.40
2017-08-18T18:34:15.652Z,21.30
2017-08-18T18:36:44.315Z,21.20
2017-08-18T18:42:01.422Z,21.00
2017-08-18T18:44:29.878Z,21.00
2017-08-18T18:46:58.314Z,20.90
2017-08-18T18:49:29.343Z,20.90
2017-08-18T18:52:01.137Z,20.80
2017-08-18T18:54:29.643Z,20.80
2017-08-18T18:56:58.247Z,20.70
2017-08-18T18:59:29.495Z,20.70
2017-08-18T19:01:57.916Z,20.60
2017-08-18T19:04:29.134Z,20.70
2017-08-18T19:06:57.569Z,20.50
2017-08-18T19:09:25.987Z,20.40
2017-08-18T19:11:54.160Z,20.30
2017-08-18T19:14:22.616Z,20.30
2017-08-18T19:16:51.123Z,20.30
2017-08-18T19:19:19.543Z,20.30
2017-08-18T19:21:48.042Z,20.20
2017-08-18T19:24:18.619Z,20.20
2017-08-18T19:26:47.037Z,20.10
2017-08-18T19:29:15.485Z,20.00
2017-08-18T19:31:45.381Z,19.90
2017-08-18T19:34:13.913Z,19.80
2017-08-18T19:36:42.388Z,19.60
2017-08-18T19:39:10.852Z,19.60
2017-08-18T19:41:39.314Z,19.50
2017-08-18T19:44:07.783Z,19.50
2017-08-18T19:49:16.535Z,19.40
2017-08-18T19:51:44.990Z,19.40
2017-08-18T19:54:13.498Z,19.50
2017-08-18T19:56:41.949Z,19.50
2017-08-18T19:59:10.459Z,19.50
2017-08-18T20:01:38.921Z,19.40
2017-08-18T20:04:11.228Z,19.30
2017-08-18T20:06:39.690Z,19.30
2017-08-18T20:09:08.142Z,19.20
2017-08-18T20:11:36.635Z,19.10
2017-08-18T20:14:05.128Z,19.10
2017-08-18T20:16:34.013Z,19.10
2017-08-18T20:19:02.431Z,19.00
2017-08-18T20:21:30.509Z,19.00
2017-08-18T20:24:00.325Z,18.90
2017-08-18T20:26:30.649Z,18.80
2017-08-18T20:28:59.095Z,18.80
2017-08-18T20:31:27.531Z,18.80
2017-08-18T20:33:55.962Z,18.80
2017-08-18T20:36:24.361Z,18.70
2017-08-18T20:38:54.647Z,18.70
2017-08-18T20:41:23.116Z,18.70
2017-08-18T20:43:51.584Z,18.60
2017-08-18T20:46:21.154Z,18.50
2017-08-18T20:48:49.598Z,18.40
2017-08-18T20:51:18.021Z,18.40
2017-08-18T20:53:46.454Z,18.30
2017-08-18T20:56:14.918Z,18.30
2017-08-18T20:58:43.349Z,18.30
2017-08-18T21:01:11.790Z,18.20
2017-08-18T21:03:40.028Z,18.20
2017-08-18T21:06:08.457Z,18.10
2017-08-18T21:08:36.887Z,18.10
2017-08-18T21:11:05.313Z,18.10
2017-08-18T21:13:33.762Z,18.10
2017-08-18T21:16:02.205Z,18.10
2017-08-18T21:18:30.626Z,18.10
2017-08-18T21:20:59.047Z,18.10
2017-08-18T21:23:27.506Z,18.00
2017-08-18T21:25:55.926Z,17.90
2017-08-18T21:28:24.338Z,17.90
2017-08-18T21:30:52.816Z,17.80
2017-08-18T21:33:21.229Z,17.90
2017-08-18T21:35:49.656Z,17.80
2017-08-18T21:38:18.118Z,17.80
2017-08-18T21:40:46.546Z,17.70
2017-08-18T21:43:14.974Z,17.70
2017-08-18T21:45:43.423Z,17.70
2017-08-18T21:48:11.877Z,17.60
2017-08-18T21:50:40.300Z,17.60
2017-08-18T21:53:08.754Z,17.50
2017-08-18T21:55:37.167Z,17.40
2017-08-18T21:58:05.608Z,17.40
2017-08-18T22:00:34.103Z,17.40
2017-08-18T22:03:02.526Z,17.40
2017-08-18T22:05:30.956Z,17.50
2017-08-18T22:07:59.497Z,17.50
2017-08-18T22:10:27.962Z,17.40
2017-08-18T22:12:56.393Z,17.40
2017-08-18T22:15:24.837Z,17.40
2017-08-18T22:17:53.311Z,17.30
2017-08-18T22:20:21.738Z,17.30
2017-08-18T22:22:50.170Z,17.40
2017-08-18T22:25:18.616Z,17.40
2017-08-18T22:27:47.059Z,17.30
2017-08-18T22:30:15.489Z,17.30
2017-08-18T22:32:44.166Z,17.30
2017-08-18T22:35:12.594Z,17.20
2017-08-18T22:37:41.017Z,17.20
2017-08-18T22:40:09.470Z,17.30
2017-08-18T22:42:37.928Z,17.20
2017-08-18T22:45:06.392Z,17.10
2017-08-18T22:47:34.853Z,17.10
2017-08-18T22:50:03.276Z,17.20
2017-08-18T22:52:31.717Z,17.20
2017-08-18T22:55:00.167Z,17.20
2017-08-18T22:57:28.609Z,17.10
2017-08-18T22:59:57.035Z,17.00
2017-08-18T23:02:25.459Z,17.10
2017-08-18T23:04:53.895Z,17.10
2017-08-18T23:07:22.317Z,17.10
2017-08-18T23:09:50.733Z,17.10
2017-08-18T23:12:19.218Z,17.00
2017-08-18T23:14:47.650Z,17.00
2017-08-18T23:17:16.086Z,16.90
2017-08-18T23:19:44.559Z,17.00
2017-08-18T23:22:12.993Z,17.30
2017-08-18T23:24:51.879Z,17.30
2017-08-18T23:27:20.336Z,17.20
2017-08-18T23:29:48.780Z,17.10
2017-08-18T23:32:17.242Z,17.10
2017-08-18T23:34:46.470Z,17.30
2017-08-18T23:37:14.922Z,17.30
2017-08-18T23:39:43.414Z,17.80
2017-08-18T23:42:11.857Z,18.00
2017-08-18T23:44:40.283Z,18.10
2017-08-18T23:47:08.717Z,18.20
2017-08-18T23:49:37.113Z,18.10
2017-08-18T23:52:05.537Z,18.10
2017-08-18T23:54:33.964Z,18.00
2017-08-18T23:57:02.398Z,17.90
2017-08-18T23:59:30.822Z,17.70
